.
WxDataArchive / Data Records for 2008-02-21
2008-02-20 February 2008 2008-02-22

Data Records for Thursday, 21 February 2008

Time	Temp	Chill	HIndex	Humid	Dewpt	 Wind 	HiWind	WindDir	Rain 	Barom 
-----	----	-----	------	-----	-----	------	------	-------	-----	----- 
00:00	7.2	7.2	7.2	77	1.5	0	0	---	0.00	30.414 
00:05	7.0	7.0	7.0	77	1.3	0	0	---	0.00	30.414 
00:10	7.0	7.0	7.0	77	1.3	0	0	---	0.00	30.415 
00:15	6.9	6.9	6.9	77	1.2	0	0	---	0.00	30.418 
00:20	7.0	7.0	7.0	78	1.6	0	0	---	0.00	30.418 
00:25	7.0	7.0	7.0	78	1.6	0	0	---	0.00	30.422 
00:30	7.0	7.0	7.0	78	1.6	0	0	---	0.00	30.422 
00:35	7.0	7.0	7.0	78	1.6	0	0	---	0.00	30.421 
00:40	6.9	6.9	6.9	78	1.5	0	0	---	0.00	30.417 
00:45	6.9	6.9	6.9	78	1.5	0	0	---	0.00	30.416 
00:50	6.7	6.7	6.7	78	1.3	0	0	---	0.00	30.418 
00:55	6.5	6.5	6.5	78	1.1	0	0	---	0.00	30.417 
01:00	6.5	6.5	6.5	79	1.4	0	0	---	0.00	30.418 
01:05	6.3	6.3	6.3	79	1.2	0	0	---	0.00	30.413 
01:10	6.3	6.3	6.3	79	1.2	0	0	---	0.00	30.412 
01:15	6.1	6.1	6.1	79	1.0	0	0	---	0.00	30.413 
01:20	6.1	6.1	6.1	79	1.0	0	0	---	0.00	30.414 
01:25	6.0	6.0	6.0	79	0.9	0	0	---	0.00	30.413 
01:30	5.8	5.8	5.8	79	0.7	0	0	---	0.00	30.413 
01:35	5.8	5.8	5.8	80	1.0	0	0	---	0.00	30.412 
01:40	5.8	5.8	5.8	80	1.0	0	0	---	0.00	30.412 
01:45	5.8	5.8	5.8	80	1.0	0	0	---	0.00	30.412 
01:50	5.8	5.8	5.8	80	1.0	0	0	---	0.00	30.412 
01:55	5.8	5.8	5.8	80	1.0	0	0	---	0.00	30.411 
02:00	5.6	5.6	5.6	80	0.8	0	0	---	0.00	30.409 
02:05	5.6	5.6	5.6	80	0.8	0	0	---	0.00	30.409 
02:10	5.4	5.4	5.4	80	0.6	0	0	---	0.00	30.412 
02:15	5.4	5.4	5.4	80	0.6	0	0	---	0.00	30.413 
02:20	5.4	5.4	5.4	80	0.6	0	0	---	0.00	30.411 
02:25	5.4	5.4	5.4	80	0.6	0	0	---	0.00	30.413 
02:30	5.2	5.2	5.2	80	0.4	0	0	---	0.00	30.411 
02:35	5.2	5.2	5.2	80	0.4	0	0	---	0.00	30.413 
02:40	5.2	5.2	5.2	80	0.4	0	0	---	0.00	30.414 
02:45	5.2	5.2	5.2	80	0.4	0	0	---	0.00	30.413 
02:50	5.2	5.2	5.2	80	0.4	0	0	---	0.00	30.413 
02:55	5.2	5.2	5.2	80	0.4	0	0	---	0.00	30.414 
03:00	5.0	5.0	5.0	80	0.2	0	0	---	0.00	30.415 
03:05	5.0	5.0	5.0	81	0.5	0	0	---	0.00	30.415 
03:10	5.0	5.0	5.0	80	0.2	0	0	---	0.00	30.421 
03:15	5.0	5.0	5.0	81	0.5	0	0	---	0.00	30.419 
03:20	5.0	5.0	5.0	81	0.5	0	0	---	0.00	30.420 
03:25	5.0	5.0	5.0	81	0.5	0	0	---	0.00	30.424 
03:30	5.0	5.0	5.0	81	0.5	0	0	---	0.00	30.426 
03:35	5.0	5.0	5.0	81	0.5	0	0	---	0.00	30.427 
03:40	5.0	5.0	5.0	81	0.5	0	0	---	0.00	30.427 
03:45	5.0	5.0	5.0	81	0.5	0	0	---	0.00	30.428 
03:50	4.8	4.8	4.8	81	0.3	0	0	---	0.00	30.425 
03:55	4.8	4.8	4.8	81	0.3	0	0	---	0.00	30.428 
04:00	4.7	4.7	4.7	81	0.2	0	0	---	0.00	30.428 
04:05	4.7	4.7	4.7	81	0.2	0	0	---	0.00	30.430 
04:10	4.7	4.7	4.7	81	0.2	0	0	---	0.00	30.429 
04:15	4.7	4.7	4.7	81	0.2	0	0	---	0.00	30.429 
04:20	4.7	4.7	4.7	81	0.2	0	0	---	0.00	30.428 
04:25	4.5	4.5	4.5	81	-0.0	0	0	---	0.00	30.429 
04:30	4.5	4.5	4.5	81	-0.0	0	0	---	0.00	30.428 
04:35	4.3	4.3	4.3	81	-0.2	0	0	---	0.00	30.428 
04:40	4.3	4.3	4.3	81	-0.2	0	0	---	0.00	30.423 
04:45	4.1	4.1	4.1	81	-0.4	0	0	---	0.00	30.425 
04:50	4.1	4.1	4.1	82	-0.1	0	0	---	0.00	30.427 
04:55	4.1	4.1	4.1	82	-0.1	0	0	---	0.00	30.424 
05:00	4.1	4.1	4.1	82	-0.1	0	0	---	0.00	30.425 
05:05	4.1	4.1	4.1	82	-0.1	0	0	---	0.00	30.426 
05:10	4.1	4.1	4.1	82	-0.1	0	0	---	0.00	30.425 
05:15	4.1	4.1	4.1	82	-0.1	0	0	---	0.00	30.421 
05:20	3.9	3.9	3.9	82	-0.3	0	0	---	0.00	30.428 
05:25	3.9	3.9	3.9	82	-0.3	0	0	---	0.00	30.429 
05:30	3.9	3.9	3.9	82	-0.3	0	0	---	0.00	30.428 
05:35	3.9	3.9	3.9	82	-0.3	0	0	---	0.00	30.427 
05:40	3.9	3.9	3.9	82	-0.3	0	0	---	0.00	30.423 
05:45	3.9	3.9	3.9	82	-0.3	0	0	---	0.00	30.427 
05:50	3.9	3.9	3.9	82	-0.3	0	0	---	0.00	30.428 
05:55	3.9	3.9	3.9	82	-0.3	0	0	---	0.00	30.429 
06:00	3.7	3.7	3.7	82	-0.5	0	0	---	0.00	30.428 
06:05	3.7	3.7	3.7	82	-0.5	0	0	---	0.00	30.426 
06:10	3.5	3.5	3.5	82	-0.7	0	0	---	0.00	30.424 
06:15	3.7	3.7	3.7	82	-0.5	0	0	---	0.00	30.420 
06:20	3.9	3.9	3.9	82	-0.3	0	0	---	0.00	30.418 
06:25	4.1	4.1	4.1	82	-0.1	0	0	---	0.00	30.417 
06:30	4.3	4.3	4.3	82	0.0	0	0	---	0.00	30.417 
06:35	4.3	4.3	4.3	82	0.0	0	0	---	0.00	30.417 
06:40	4.3	4.3	4.3	83	0.3	0	0	---	0.00	30.418 
06:45	4.3	4.3	4.3	82	0.0	0	0	---	0.00	30.417 
06:50	4.5	4.5	4.5	83	0.5	0	0	---	0.00	30.413 
06:55	4.7	4.7	4.7	83	0.7	0	0	---	0.00	30.414 
07:00	4.7	4.7	4.7	83	0.7	0	0	---	0.00	30.416 
07:05	4.8	4.8	4.8	83	0.8	0	0	---	0.00	30.421 
07:10	4.8	4.8	4.8	83	0.8	0	0	---	0.00	30.420 
07:15	4.8	4.8	4.8	83	0.8	0	0	---	0.00	30.418 
07:20	4.8	4.8	4.8	83	0.8	0	0	---	0.00	30.418 
07:25	4.8	4.8	4.8	83	0.8	0	0	---	0.00	30.415 
07:30	5.0	5.0	5.0	83	1.0	0	0	---	0.00	30.416 
07:35	5.0	5.0	5.0	83	1.0	0	0	---	0.00	30.419 
07:40	5.0	5.0	5.0	83	1.0	0	0	---	0.00	30.420 
07:45	5.2	5.2	5.2	83	1.2	0	0	---	0.00	30.417 
07:50	5.8	5.8	5.8	84	2.0	0	1	338	0.00	30.415 
07:55	6.1	6.1	6.1	83	2.1	0	1	338	0.00	30.413 
08:00	6.9	6.9	6.9	83	2.9	0	1	338	0.00	30.409 
08:05	7.6	7.6	7.6	83	3.5	1	2	338	0.00	30.412 
08:10	7.9	7.9	7.9	82	3.6	0	2	0	0.00	30.414 
08:15	8.4	8.4	8.4	81	3.8	0	1	0	0.00	30.417 
08:20	9.3	9.3	9.3	81	4.7	1	3	112	0.00	30.411 
08:25	10.2	10.2	10.2	80	5.3	1	3	112	0.00	30.410 
08:30	10.7	10.7	10.7	77	4.9	1	2	112	0.00	30.414 
08:35	11.2	11.2	11.2	75	4.9	1	3	112	0.00	30.411 
08:40	11.4	11.4	11.4	74	4.8	1	3	112	0.00	30.414 
08:45	11.9	11.9	11.9	72	4.6	1	3	112	0.00	30.415 
08:50	12.4	12.4	12.4	71	4.8	1	2	112	0.00	30.415 
08:55	13.1	13.1	13.1	68	4.6	1	4	112	0.00	30.409 
09:00	13.6	13.6	13.6	67	4.7	1	5	112	0.00	30.414 
09:05	14.3	14.3	14.3	64	4.4	2	5	112	0.00	30.409 
09:10	14.8	14.8	14.8	63	4.5	2	4	112	0.00	30.406 
09:15	15.1	15.1	15.1	62	4.5	2	6	112	0.00	30.401 
09:20	15.2	15.2	15.2	61	4.2	1	4	112	0.00	30.399 
09:25	15.2	15.2	15.2	60	3.8	2	6	112	0.00	30.396 
09:30	15.2	15.2	15.2	62	4.6	1	3	90	0.00	30.397 
09:35	15.7	15.7	15.7	62	5.0	2	4	112	0.00	30.390 
09:40	15.9	15.9	15.9	60	4.5	3	9	112	0.00	30.383 
09:45	15.7	15.7	15.7	59	4.0	3	9	112	0.00	30.383 
09:50	15.9	15.9	15.9	60	4.5	1	4	112	0.00	30.381 
09:55	16.5	16.5	16.5	61	5.4	1	5	112	0.00	30.382 
10:00	16.7	16.7	16.7	59	4.9	3	6	90	0.00	30.380 
10:05	16.9	16.9	16.9	59	5.1	3	6	112	0.00	30.378 
10:10	17.2	17.2	17.2	58	5.0	3	9	112	0.00	30.378 
10:15	17.5	17.5	17.5	57	4.9	3	8	112	0.00	30.378 
10:20	17.8	11.7	17.8	54	4.0	4	9	112	0.00	30.379 
10:25	18.3	12.3	18.3	53	4.1	4	12	112	0.00	30.375 
10:30	18.8	18.8	18.8	54	4.9	3	7	90	0.00	30.368 
10:35	19.2	19.2	19.2	52	4.5	2	10	112	0.00	30.368 
10:40	19.4	19.4	19.4	52	4.7	3	7	112	0.00	30.366 
10:45	19.7	13.9	19.7	51	4.5	4	7	112	0.00	30.367 
10:50	19.5	12.4	19.5	51	4.4	5	10	112	0.00	30.366 
10:55	19.5	13.6	19.5	49	3.5	4	10	112	0.00	30.371 
11:00	19.9	14.1	19.9	53	5.6	4	8	90	0.00	30.370 
11:05	19.5	12.4	19.5	49	3.5	5	11	112	0.00	30.375 
11:10	19.9	14.1	19.9	50	4.3	4	10	90	0.00	30.378 
11:15	19.9	19.9	19.9	50	4.3	3	6	112	0.00	30.370 
11:20	19.9	19.9	19.9	52	5.1	3	11	90	0.00	30.367 
11:25	20.0	20.0	20.0	52	5.2	3	7	112	0.00	30.364 
11:30	20.5	20.5	20.5	53	6.1	3	7	112	0.00	30.362 
11:35	20.6	20.6	20.6	50	4.9	3	10	112	0.00	30.360 
11:40	20.6	14.9	20.6	50	4.9	4	9	90	0.00	30.363 
11:45	20.6	13.7	20.6	50	4.9	5	11	90	0.00	30.359 
11:50	20.8	13.9	20.8	49	4.7	5	11	90	0.00	30.358 
11:55	20.8	13.9	20.8	48	4.2	5	8	90	0.00	30.356 
12:00	20.8	15.1	20.8	48	4.2	4	10	112	0.00	30.349 
12:05	20.8	13.9	20.8	49	4.7	5	10	112	0.00	30.349 
12:10	20.5	13.6	20.5	49	4.4	5	11	112	0.00	30.347 
12:15	20.6	14.9	20.6	49	4.5	4	9	112	0.00	30.344 
12:20	21.1	21.1	21.1	50	5.4	2	6	112	0.00	30.341 
12:25	20.8	12.9	20.8	50	5.1	6	11	112	0.00	30.337 
12:30	20.8	13.9	20.8	48	4.2	5	10	112	0.00	30.335 
12:35	20.8	15.1	20.8	49	4.7	4	9	112	0.00	30.334 
12:40	20.8	15.1	20.8	48	4.2	4	11	112	0.00	30.333 
12:45	20.8	15.1	20.8	48	4.2	4	13	112	0.00	30.326 
12:50	20.8	15.1	20.8	48	4.2	4	10	112	0.00	30.323 
12:55	21.0	21.0	21.0	49	4.9	3	7	112	0.00	30.323 
13:00	21.0	15.4	21.0	49	4.9	4	9	112	0.00	30.320 
13:05	21.1	21.1	21.1	48	4.5	2	5	112	0.00	30.319 
13:10	21.1	21.1	21.1	48	4.5	3	11	112	0.00	30.315 
13:15	20.6	13.7	20.6	48	4.1	5	11	112	0.00	30.310 
13:20	20.8	20.8	20.8	49	4.7	3	9	112	0.00	30.308 
13:25	21.1	21.1	21.1	50	5.4	3	6	112	0.00	30.304 
13:30	21.1	21.1	21.1	48	4.5	3	7	112	0.00	30.301 
13:35	21.0	15.4	21.0	49	4.9	4	8	112	0.00	30.298 
13:40	21.0	21.0	21.0	50	5.3	3	6	112	0.00	30.294 
13:45	21.0	21.0	21.0	46	3.5	3	7	112	0.00	30.288 
13:50	21.1	21.1	21.1	49	5.0	3	6	112	0.00	30.284 
13:55	21.1	21.1	21.1	46	3.6	3	7	112	0.00	30.276 
14:00	21.1	15.5	21.1	46	3.6	4	10	112	0.00	30.273 
14:05	21.0	21.0	21.0	47	4.0	3	7	112	0.00	30.269 
14:10	21.1	21.1	21.1	46	3.6	3	7	90	0.00	30.264 
14:15	21.0	15.4	21.0	46	3.5	4	10	112	0.00	30.256 
14:20	21.1	15.5	21.1	48	4.5	4	11	112	0.00	30.256 
14:25	21.3	21.3	21.3	48	4.7	3	6	112	0.00	30.254 
14:30	21.4	15.8	21.4	48	4.8	4	9	112	0.00	30.249 
14:35	21.1	15.5	21.1	46	3.6	4	9	112	0.00	30.242 
14:40	21.4	21.4	21.4	48	4.8	3	7	90	0.00	30.240 
14:45	21.4	15.8	21.4	48	4.8	4	8	112	0.00	30.238 
14:50	21.6	16.1	21.6	46	4.1	4	9	112	0.00	30.234 
14:55	21.6	16.1	21.6	47	4.5	4	8	112	0.00	30.230 
15:00	21.4	15.8	21.4	48	4.8	4	9	112	0.00	30.224 
15:05	21.4	15.8	21.4	48	4.8	4	9	112	0.00	30.222 
15:10	21.6	21.6	21.6	48	5.0	3	7	112	0.00	30.222 
15:15	21.6	14.9	21.6	47	4.5	5	9	90	0.00	30.218 
15:20	21.6	16.1	21.6	49	5.4	4	11	112	0.00	30.216 
15:25	21.4	14.6	21.4	49	5.2	5	10	90	0.00	30.211 
15:30	21.6	21.6	21.6	50	5.9	3	7	90	0.00	30.208 
15:35	21.6	21.6	21.6	49	5.4	3	6	90	0.00	30.206 
15:40	21.6	21.6	21.6	51	6.3	3	6	90	0.00	30.201 
15:45	21.6	16.1	21.6	50	5.9	4	9	112	0.00	30.199 
15:50	21.4	14.6	21.4	50	5.7	5	10	112	0.00	30.195 
15:55	21.4	21.4	21.4	51	6.1	3	9	112	0.00	30.192 
16:00	21.6	16.1	21.6	50	5.9	4	12	112	0.00	30.190 
16:05	21.6	21.6	21.6	52	6.7	3	12	90	0.00	30.190 
16:10	21.6	16.1	21.6	52	6.7	4	9	90	0.00	30.182 
16:15	21.6	16.1	21.6	52	6.7	4	9	90	0.00	30.179 
16:20	21.6	21.6	21.6	54	7.6	3	7	90	0.00	30.180 
16:25	21.6	21.6	21.6	51	6.3	3	10	112	0.00	30.176 
16:30	21.4	14.6	21.4	53	7.0	5	10	112	0.00	30.178 
16:35	21.4	21.4	21.4	54	7.4	2	6	90	0.00	30.178 
16:40	21.3	21.3	21.3	55	7.7	3	7	112	0.00	30.177 
16:45	21.3	15.7	21.3	56	8.1	4	10	112	0.00	30.175 
16:50	20.8	20.8	20.8	61	9.5	3	11	112	0.00	30.174 
16:55	20.3	20.3	20.3	66	10.8	3	6	112	0.00	30.174 
17:00	20.2	20.2	20.2	71	12.3	1	4	112	0.00	30.175 
17:05	19.9	19.9	19.9	73	12.7	3	6	112	0.00	30.174 
17:10	19.5	19.5	19.5	75	12.9	2	6	112	0.00	30.173 
17:15	19.4	19.4	19.4	77	13.4	2	5	90	0.00	30.171 
17:20	19.1	13.2	19.1	78	13.4	4	7	90	0.00	30.167 
17:25	18.8	18.8	18.8	80	13.7	3	9	112	0.00	30.168 
17:30	18.8	18.8	18.8	81	14.0	2	5	112	0.00	30.168 
17:35	18.6	18.6	18.6	82	14.0	2	4	112	0.00	30.167 
17:40	18.6	18.6	18.6	82	14.0	2	4	112	0.00	30.164 
17:45	18.6	18.6	18.6	83	14.3	3	5	112	0.00	30.164 
17:50	18.6	18.6	18.6	83	14.3	3	5	112	0.00	30.164 
17:55	18.6	18.6	18.6	84	14.6	3	7	112	0.00	30.162 
18:00	18.6	18.6	18.6	84	14.6	3	6	90	0.00	30.162 
18:05	18.4	18.4	18.4	84	14.4	3	8	112	0.00	30.163 
18:10	18.4	18.4	18.4	84	14.4	3	7	112	0.00	30.162 
18:15	18.6	18.6	18.6	84	14.6	2	7	90	0.00	30.156 
18:20	18.6	18.6	18.6	84	14.6	2	7	112	0.00	30.151 
18:25	18.6	18.6	18.6	84	14.6	2	4	90	0.00	30.147 
18:30	18.6	18.6	18.6	84	14.6	2	6	112	0.00	30.145 
18:35	18.6	18.6	18.6	84	14.6	3	8	112	0.00	30.143 
18:40	18.4	18.4	18.4	85	14.7	3	4	90	0.00	30.137 
18:45	18.4	18.4	18.4	85	14.7	3	9	112	0.00	30.134 
18:50	18.4	18.4	18.4	85	14.7	3	6	112	0.00	30.133 
18:55	18.4	18.4	18.4	85	14.7	3	9	90	0.00	30.132 
19:00	18.4	18.4	18.4	86	14.9	2	5	112	0.00	30.130 
19:05	18.6	18.6	18.6	86	15.1	2	4	112	0.00	30.128 
19:10	18.6	18.6	18.6	86	15.1	2	6	112	0.00	30.128 
19:15	18.6	18.6	18.6	86	15.1	3	6	90	0.00	30.126 
19:20	18.6	18.6	18.6	86	15.1	2	5	90	0.00	30.125 
19:25	18.6	18.6	18.6	86	15.1	2	3	90	0.00	30.123 
19:30	18.6	18.6	18.6	86	15.1	3	6	90	0.00	30.113 
19:35	18.6	12.6	18.6	86	15.1	4	6	112	0.00	30.106 
19:40	18.6	18.6	18.6	86	15.1	3	6	112	0.00	30.106 
19:45	18.6	18.6	18.6	86	15.1	3	8	112	0.00	30.103 
19:50	18.8	18.8	18.8	86	15.3	3	6	112	0.00	30.105 
19:55	18.8	18.8	18.8	86	15.3	2	5	112	0.00	30.100 
20:00	18.8	18.8	18.8	86	15.3	2	9	112	0.00	30.099 
20:05	18.9	18.9	18.9	86	15.4	2	5	90	0.00	30.092 
20:10	18.9	18.9	18.9	86	15.4	3	7	90	0.00	30.089 
20:15	18.9	18.9	18.9	86	15.4	3	6	112	0.00	30.089 
20:20	19.1	19.1	19.1	87	15.9	2	5	112	0.00	30.088 
20:25	19.1	19.1	19.1	86	15.6	2	6	112	0.00	30.089 
20:30	19.1	19.1	19.1	86	15.6	2	6	112	0.00	30.090 
20:35	19.1	19.1	19.1	87	15.9	2	5	112	0.00	30.086 
20:40	19.2	19.2	19.2	87	16.0	2	4	112	0.00	30.084 
20:45	19.2	19.2	19.2	87	16.0	2	5	112	0.00	30.083 
20:50	19.2	19.2	19.2	86	15.7	3	7	112	0.00	30.088 
20:55	19.2	19.2	19.2	86	15.7	3	6	112	0.00	30.089 
21:00	19.2	19.2	19.2	86	15.7	2	6	90	0.00	30.084 
21:05	19.2	19.2	19.2	86	15.7	2	7	112	0.00	30.074 
21:10	19.2	19.2	19.2	86	15.7	3	7	112	0.00	30.073 
21:15	19.2	19.2	19.2	86	15.7	3	7	112	0.00	30.071 
21:20	19.2	19.2	19.2	86	15.7	2	7	90	0.00	30.068 
21:25	19.2	19.2	19.2	86	15.7	2	5	90	0.00	30.071 
21:30	19.2	19.2	19.2	86	15.7	3	6	90	0.00	30.071 
21:35	19.2	19.2	19.2	86	15.7	3	7	112	0.00	30.069 
21:40	19.2	19.2	19.2	86	15.7	2	5	90	0.00	30.071 
21:45	19.2	19.2	19.2	87	16.0	2	5	112	0.00	30.063 
21:50	19.2	19.2	19.2	87	16.0	2	7	90	0.00	30.060 
21:55	19.2	19.2	19.2	87	16.0	2	5	112	0.00	30.057 
22:00	19.2	19.2	19.2	87	16.0	3	6	112	0.00	30.054 
22:05	19.2	19.2	19.2	87	16.0	2	6	90	0.00	30.048 
22:10	19.2	19.2	19.2	87	16.0	2	6	112	0.00	30.047 
22:15	19.2	19.2	19.2	87	16.0	1	3	112	0.00	30.052 
22:20	19.2	19.2	19.2	87	16.0	2	4	112	0.00	30.046 
22:25	19.2	19.2	19.2	87	16.0	1	4	90	0.00	30.047 
22:30	19.2	19.2	19.2	87	16.0	1	6	90	0.00	30.048 
22:35	19.2	19.2	19.2	88	16.2	2	4	90	0.00	30.041 
22:40	19.2	19.2	19.2	88	16.2	1	5	112	0.00	30.039 
22:45	19.2	19.2	19.2	88	16.2	2	4	90	0.00	30.039 
22:50	19.2	19.2	19.2	88	16.2	2	4	90	0.00	30.039 
22:55	19.2	19.2	19.2	88	16.2	2	5	112	0.00	30.038 
23:00	19.2	19.2	19.2	88	16.2	2	6	112	0.00	30.038 
23:05	19.2	19.2	19.2	88	16.2	2	5	112	0.00	30.038 
23:10	19.4	19.4	19.4	88	16.4	1	3	112	0.00	30.042 
23:15	19.4	19.4	19.4	88	16.4	1	4	112	0.00	30.041 
23:20	19.4	19.4	19.4	88	16.4	1	4	112	0.00	30.040 
23:25	19.4	19.4	19.4	88	16.4	1	4	112	0.00	30.037 
23:30	19.4	19.4	19.4	88	16.4	1	5	90	0.00	30.034 
23:35	19.4	19.4	19.4	88	16.4	0	2	90	0.00	30.032 
23:40	19.4	19.4	19.4	88	16.4	1	4	90	0.00	30.028 
23:45	19.4	19.4	19.4	88	16.4	2	4	112	0.00	30.019 
23:50	19.4	19.4	19.4	88	16.4	1	4	135	0.00	30.015 
23:55	19.4	19.4	19.4	88	16.4	0	3	112	0.00	30.007 

CoCoRaHS
IN-AL-39
A2 Web Hosting
Creative Commons License
GoDaddy
Look for:

loaded 2017-12-13 15:43:02 • last modified 2010-11-18 10:43:29
Privacy PolicyDisclaimer
• wx.awcolley.com is powered by PmWiki v.2002016 •
• all content (unless otherwise noted) © 2017 A W Colley